sensor_id;sensor_type;location;lat;lon;timestamp;temperature;humidity
18339;DHT22;9295;44.484;11.240;2022-11-15T00:01:06;8.90;99.90
18339;DHT22;9295;44.484;11.240;2022-11-15T00:03:54;8.80;99.90
18339;DHT22;9295;44.484;11.240;2022-11-15T00:06:40;8.80;99.90
18339;DHT22;9295;44.484;11.240;2022-11-15T00:09:27;8.70;99.90
18339;DHT22;9295;44.484;11.240;2022-11-15T00:12:15;8.70;99.90
18339;DHT22;9295;44.484;11.240;2022-11-15T00:15:03;8.70;99.90
18339;DHT22;9295;44.484;11.240;2022-11-15T00:17:50;8.70;99.90
18339;DHT22;9295;44.484;11.240;2022-11-15T00:20:36;8.70;99.90
18339;DHT22;9295;44.484;11.240;2022-11-15T00:23:24;8.60;99.90
18339;DHT22;9295;44.484;11.240;2022-11-15T00:26:12;8.60;99.90
18339;DHT22;9295;44.484;11.240;2022-11-15T00:29:01;8.60;99.90
18339;DHT22;9295;44.484;11.240;2022-11-15T00:31:48;8.50;99.90
18339;DHT22;9295;44.484;11.240;2022-11-15T00:34:35;8.50;99.90
18339;DHT22;9295;44.484;11.240;2022-11-15T00:37:22;8.50;99.90
18339;DHT22;9295;44.484;11.240;2022-11-15T00:40:10;8.40;99.90
18339;DHT22;9295;44.484;11.240;2022-11-15T00:42:58;8.40;99.90
18339;DHT22;9295;44.484;11.240;2022-11-15T00:45:46;8.30;99.90
18339;DHT22;9295;44.484;11.240;2022-11-15T00:48:33;8.30;99.90
18339;DHT22;9295;44.484;11.240;2022-11-15T00:51:20;8.40;99.90
18339;DHT22;9295;44.484;11.240;2022-11-15T00:54:07;8.30;99.90
18339;DHT22;9295;44.484;11.240;2022-11-15T00:56:54;8.30;99.90
18339;DHT22;9295;44.484;11.240;2022-11-15T00:59:41;8.30;99.90
18339;DHT22;9295;44.484;11.240;2022-11-15T01:02:29;8.30;99.90
18339;DHT22;9295;44.484;11.240;2022-11-15T01:05:16;8.30;99.90
18339;DHT22;9295;44.484;11.240;2022-11-15T01:08:04;8.20;99.90
18339;DHT22;9295;44.484;11.240;2022-11-15T01:10:50;8.10;99.90
18339;DHT22;9295;44.484;11.240;2022-11-15T01:13:38;8.00;99.90
18339;DHT22;9295;44.484;11.240;2022-11-15T01:16:25;8.00;99.90
18339;DHT22;9295;44.484;11.240;2022-11-15T01:19:13;8.00;99.90
18339;DHT22;9295;44.484;11.240;2022-11-15T01:22:01;8.00;99.90
18339;DHT22;9295;44.484;11.240;2022-11-15T01:24:49;7.90;99.90
18339;DHT22;9295;44.484;11.240;2022-11-15T01:27:36;7.90;99.90
18339;DHT22;9295;44.484;11.240;2022-11-15T01:30:23;7.90;99.90
18339;DHT22;9295;44.484;11.240;2022-11-15T01:33:10;7.90;99.90
18339;DHT22;9295;44.484;11.240;2022-11-15T01:35:58;7.90;99.90
18339;DHT22;9295;44.484;11.240;2022-11-15T01:38:45;7.80;99.90
18339;DHT22;9295;44.484;11.240;2022-11-15T01:41:33;7.80;99.90
18339;DHT22;9295;44.484;11.240;2022-11-15T01:44:39;7.90;99.90
18339;DHT22;9295;44.484;11.240;2022-11-15T01:47:28;7.90;99.90
18339;DHT22;9295;44.484;11.240;2022-11-15T01:50:19;7.80;99.90
18339;DHT22;9295;44.484;11.240;2022-11-15T01:53:09;7.80;99.90
18339;DHT22;9295;44.484;11.240;2022-11-15T01:55:57;7.80;99.90
18339;DHT22;9295;44.484;11.240;2022-11-15T01:58:45;7.70;99.90
18339;DHT22;9295;44.484;11.240;2022-11-15T02:01:33;7.80;99.90
18339;DHT22;9295;44.484;11.240;2022-11-15T02:04:22;7.80;99.90
18339;DHT22;9295;44.484;11.240;2022-11-15T02:07:15;7.80;99.90
18339;DHT22;9295;44.484;11.240;2022-11-15T02:10:07;7.80;99.90
18339;DHT22;9295;44.484;11.240;2022-11-15T02:12:55;7.80;99.90
18339;DHT22;9295;44.484;11.240;2022-11-15T02:15:49;7.70;99.90
18339;DHT22;9295;44.484;11.240;2022-11-15T02:18:46;7.70;99.90
18339;DHT22;9295;44.484;11.240;2022-11-15T02:21:41;7.70;99.90
18339;DHT22;9295;44.484;11.240;2022-11-15T02:24:49;7.70;99.90
18339;DHT22;9295;44.484;11.240;2022-11-15T02:28:05;7.70;99.90
18339;DHT22;9295;44.484;11.240;2022-11-15T02:31:00;7.60;99.90
18339;DHT22;9295;44.484;11.240;2022-11-15T02:33:54;7.60;99.90
18339;DHT22;9295;44.484;11.240;2022-11-15T02:36:48;7.60;99.90
18339;DHT22;9295;44.484;11.240;2022-11-15T02:39:41;7.60;99.90
18339;DHT22;9295;44.484;11.240;2022-11-15T02:42:35;7.50;99.90
18339;DHT22;9295;44.484;11.240;2022-11-15T02:45:45;7.60;99.90
18339;DHT22;9295;44.484;11.240;2022-11-15T02:48:34;7.60;99.90
18339;DHT22;9295;44.484;11.240;2022-11-15T02:51:21;7.60;99.90
18339;DHT22;9295;44.484;11.240;2022-11-15T02:54:12;7.70;99.90
18339;DHT22;9295;44.484;11.240;2022-11-15T02:57:03;7.80;99.90
18339;DHT22;9295;44.484;11.240;2022-11-15T03:00:03;7.80;99.90
18339;DHT22;9295;44.484;11.240;2022-11-15T03:03:01;7.80;99.90
18339;DHT22;9295;44.484;11.240;2022-11-15T03:06:06;7.80;99.90
18339;DHT22;9295;44.484;11.240;2022-11-15T03:09:04;7.80;99.90
18339;DHT22;9295;44.484;11.240;2022-11-15T03:11:57;7.70;99.90
18339;DHT22;9295;44.484;11.240;2022-11-15T03:14:51;7.60;99.90
18339;DHT22;9295;44.484;11.240;2022-11-15T03:17:45;7.60;99.90
18339;DHT22;9295;44.484;11.240;2022-11-15T03:20:35;7.60;99.90
18339;DHT22;9295;44.484;11.240;2022-11-15T03:23:24;7.60;99.90
18339;DHT22;9295;44.484;11.240;2022-11-15T03:26:14;7.50;99.90
18339;DHT22;9295;44.484;11.240;2022-11-15T03:29:06;7.50;99.90
18339;DHT22;9295;44.484;11.240;2022-11-15T03:31:58;7.50;99.90
18339;DHT22;9295;44.484;11.240;2022-11-15T03:34:50;7.50;99.90
18339;DHT22;9295;44.484;11.240;2022-11-15T03:37:41;7.50;99.90
18339;DHT22;9295;44.484;11.240;2022-11-15T03:40:36;7.40;99.90
18339;DHT22;9295;44.484;11.240;2022-11-15T03:43:32;7.40;99.90
18339;DHT22;9295;44.484;11.240;2022-11-15T03:46:25;7.30;99.90
18339;DHT22;9295;44.484;11.240;2022-11-15T03:49:17;7.30;99.90
18339;DHT22;9295;44.484;11.240;2022-11-15T03:52:06;7.30;99.90
18339;DHT22;9295;44.484;11.240;2022-11-15T03:54:56;7.30;99.90
18339;DHT22;9295;44.484;11.240;2022-11-15T03:57:45;7.30;99.90
18339;DHT22;9295;44.484;11.240;2022-11-15T04:00:32;7.30;99.90
18339;DHT22;9295;44.484;11.240;2022-11-15T04:03:19;7.30;99.90
18339;DHT22;9295;44.484;11.240;2022-11-15T04:06:06;7.30;99.90
18339;DHT22;9295;44.484;11.240;2022-11-15T04:08:53;7.30;99.90
18339;DHT22;9295;44.484;11.240;2022-11-15T04:11:40;7.30;99.90
18339;DHT22;9295;44.484;11.240;2022-11-15T04:14:28;7.30;99.90
18339;DHT22;9295;44.484;11.240;2022-11-15T04:17:16;7.30;99.90
18339;DHT22;9295;44.484;11.240;2022-11-15T04:20:03;7.30;99.90
18339;DHT22;9295;44.484;11.240;2022-11-15T04:23:10;7.30;99.90
18339;DHT22;9295;44.484;11.240;2022-11-15T04:26:17;7.40;99.90
18339;DHT22;9295;44.484;11.240;2022-11-15T04:29:05;7.40;99.90
18339;DHT22;9295;44.484;11.240;2022-11-15T04:32:11;7.40;99.90
18339;DHT22;9295;44.484;11.240;2022-11-15T04:34:58;7.40;99.90
18339;DHT22;9295;44.484;11.240;2022-11-15T04:37:45;7.30;99.90
18339;DHT22;9295;44.484;11.240;2022-11-15T04:40:34;7.30;99.90
18339;DHT22;9295;44.484;11.240;2022-11-15T04:43:21;7.30;99.90
18339;DHT22;9295;44.484;11.240;2022-11-15T04:46:08;7.30;99.90
18339;DHT22;9295;44.484;11.240;2022-11-15T04:48:56;7.20;99.90
18339;DHT22;9295;44.484;11.240;2022-11-15T04:51:44;7.20;99.90
18339;DHT22;9295;44.484;11.240;2022-11-15T04:54:31;7.30;99.90
18339;DHT22;9295;44.484;11.240;2022-11-15T04:57:18;7.20;99.90
18339;DHT22;9295;44.484;11.240;2022-11-15T05:00:07;7.30;99.90
18339;DHT22;9295;44.484;11.240;2022-11-15T05:02:55;7.30;99.90
18339;DHT22;9295;44.484;11.240;2022-11-15T05:06:02;7.30;99.90
18339;DHT22;9295;44.484;11.240;2022-11-15T05:08:49;7.20;99.90
18339;DHT22;9295;44.484;11.240;2022-11-15T05:11:35;7.30;99.90
18339;DHT22;9295;44.484;11.240;2022-11-15T05:14:22;7.30;99.90
18339;DHT22;9295;44.484;11.240;2022-11-15T05:17:09;7.40;99.90
18339;DHT22;9295;44.484;11.240;2022-11-15T05:19:56;7.40;99.90
18339;DHT22;9295;44.484;11.240;2022-11-15T05:22:45;7.40;99.90
18339;DHT22;9295;44.484;11.240;2022-11-15T05:25:32;7.40;99.90
18339;DHT22;9295;44.484;11.240;2022-11-15T05:28:19;7.40;99.90
18339;DHT22;9295;44.484;11.240;2022-11-15T05:31:08;7.40;99.90
18339;DHT22;9295;44.484;11.240;2022-11-15T05:33:56;7.50;99.90
18339;DHT22;9295;44.484;11.240;2022-11-15T05:36:45;7.50;99.90
18339;DHT22;9295;44.484;11.240;2022-11-15T05:39:33;7.50;99.90
18339;DHT22;9295;44.484;11.240;2022-11-15T05:42:20;7.40;99.90
18339;DHT22;9295;44.484;11.240;2022-11-15T05:45:08;7.40;99.90
18339;DHT22;9295;44.484;11.240;2022-11-15T05:47:57;7.50;99.90
18339;DHT22;9295;44.484;11.240;2022-11-15T05:50:46;7.50;99.90
18339;DHT22;9295;44.484;11.240;2022-11-15T05:53:35;7.50;99.90
18339;DHT22;9295;44.484;11.240;2022-11-15T05:56:24;7.60;99.90
18339;DHT22;9295;44.484;11.240;2022-11-15T05:59:11;7.50;99.90
18339;DHT22;9295;44.484;11.240;2022-11-15T06:01:58;7.50;99.90
18339;DHT22;9295;44.484;11.240;2022-11-15T06:04:46;7.50;99.90
18339;DHT22;9295;44.484;11.240;2022-11-15T06:07:33;7.50;99.90
18339;DHT22;9295;44.484;11.240;2022-11-15T06:10:20;7.60;99.90
18339;DHT22;9295;44.484;11.240;2022-11-15T06:13:08;7.60;99.90
18339;DHT22;9295;44.484;11.240;2022-11-15T06:15:56;7.60;99.90
18339;DHT22;9295;44.484;11.240;2022-11-15T06:18:43;7.70;99.90
18339;DHT22;9295;44.484;11.240;2022-11-15T06:21:30;7.70;99.90
18339;DHT22;9295;44.484;11.240;2022-11-15T06:24:17;7.70;99.90
18339;DHT22;9295;44.484;11.240;2022-11-15T06:27:04;7.80;99.90
18339;DHT22;9295;44.484;11.240;2022-11-15T06:29:53;7.80;99.90
18339;DHT22;9295;44.484;11.240;2022-11-15T06:32:40;7.80;99.90
18339;DHT22;9295;44.484;11.240;2022-11-15T06:35:29;7.80;99.90
18339;DHT22;9295;44.484;11.240;2022-11-15T06:38:16;7.80;99.90
18339;DHT22;9295;44.484;11.240;2022-11-15T06:41:04;7.80;99.90
18339;DHT22;9295;44.484;11.240;2022-11-15T06:43:51;7.90;99.90
18339;DHT22;9295;44.484;11.240;2022-11-15T06:46:39;7.90;99.90
18339;DHT22;9295;44.484;11.240;2022-11-15T06:49:27;8.00;99.90
18339;DHT22;9295;44.484;11.240;2022-11-15T06:52:14;8.00;99.90
18339;DHT22;9295;44.484;11.240;2022-11-15T06:55:04;8.00;99.90
18339;DHT22;9295;44.484;11.240;2022-11-15T06:57:52;8.00;99.90
18339;DHT22;9295;44.484;11.240;2022-11-15T07:00:39;8.10;99.90
18339;DHT22;9295;44.484;11.240;2022-11-15T07:03:27;8.10;99.90
18339;DHT22;9295;44.484;11.240;2022-11-15T07:06:15;8.20;99.90
18339;DHT22;9295;44.484;11.240;2022-11-15T07:09:02;8.20;99.90
18339;DHT22;9295;44.484;11.240;2022-11-15T07:11:50;8.30;99.90
18339;DHT22;9295;44.484;11.240;2022-11-15T07:14:37;8.20;99.90
18339;DHT22;9295;44.484;11.240;2022-11-15T07:17:24;8.30;99.90
18339;DHT22;9295;44.484;11.240;2022-11-15T07:20:13;8.30;99.90
18339;DHT22;9295;44.484;11.240;2022-11-15T07:23:00;8.30;99.90
18339;DHT22;9295;44.484;11.240;2022-11-15T07:25:47;8.40;99.90
18339;DHT22;9295;44.484;11.240;2022-11-15T07:28:35;8.50;99.90
18339;DHT22;9295;44.484;11.240;2022-11-15T07:31:22;8.50;99.90
18339;DHT22;9295;44.484;11.240;2022-11-15T07:34:09;8.60;99.90
18339;DHT22;9295;44.484;11.240;2022-11-15T07:36:57;8.60;99.90
18339;DHT22;9295;44.484;11.240;2022-11-15T07:39:44;8.70;99.90
18339;DHT22;9295;44.484;11.240;2022-11-15T07:42:32;8.70;99.90
18339;DHT22;9295;44.484;11.240;2022-11-15T07:45:41;8.70;99.90
18339;DHT22;9295;44.484;11.240;2022-11-15T07:48:28;8.80;99.90
18339;DHT22;9295;44.484;11.240;2022-11-15T07:51:28;8.80;99.90
18339;DHT22;9295;44.484;11.240;2022-11-15T07:54:16;8.80;99.90
18339;DHT22;9295;44.484;11.240;2022-11-15T07:57:03;8.90;99.90
18339;DHT22;9295;44.484;11.240;2022-11-15T07:59:52;8.90;99.90
18339;DHT22;9295;44.484;11.240;2022-11-15T08:02:39;8.90;99.90
18339;DHT22;9295;44.484;11.240;2022-11-15T08:05:27;9.00;99.90
18339;DHT22;9295;44.484;11.240;2022-11-15T08:08:14;9.00;99.90
18339;DHT22;9295;44.484;11.240;2022-11-15T08:11:02;9.00;99.90
18339;DHT22;9295;44.484;11.240;2022-11-15T08:13:49;9.00;99.90
18339;DHT22;9295;44.484;11.240;2022-11-15T08:16:37;8.90;99.90
18339;DHT22;9295;44.484;11.240;2022-11-15T08:19:24;8.90;99.90
18339;DHT22;9295;44.484;11.240;2022-11-15T08:22:11;9.00;99.90
18339;DHT22;9295;44.484;11.240;2022-11-15T08:24:58;9.00;99.90
18339;DHT22;9295;44.484;11.240;2022-11-15T08:27:46;9.10;99.90
18339;DHT22;9295;44.484;11.240;2022-11-15T08:30:35;9.20;99.90
18339;DHT22;9295;44.484;11.240;2022-11-15T08:33:23;9.20;99.90
18339;DHT22;9295;44.484;11.240;2022-11-15T08:36:13;9.30;99.90
18339;DHT22;9295;44.484;11.240;2022-11-15T08:39:00;9.30;99.90
18339;DHT22;9295;44.484;11.240;2022-11-15T08:41:47;9.40;99.90
18339;DHT22;9295;44.484;11.240;2022-11-15T08:44:36;9.40;99.90
18339;DHT22;9295;44.484;11.240;2022-11-15T08:47:23;9.50;99.90
18339;DHT22;9295;44.484;11.240;2022-11-15T08:50:10;9.50;99.90
18339;DHT22;9295;44.484;11.240;2022-11-15T08:52:57;9.50;99.90
18339;DHT22;9295;44.484;11.240;2022-11-15T08:55:44;9.60;99.90
18339;DHT22;9295;44.484;11.240;2022-11-15T08:58:31;9.70;99.90
18339;DHT22;9295;44.484;11.240;2022-11-15T09:01:21;9.70;99.90
18339;DHT22;9295;44.484;11.240;2022-11-15T09:04:08;9.80;99.90
18339;DHT22;9295;44.484;11.240;2022-11-15T09:06:55;9.80;99.90
18339;DHT22;9295;44.484;11.240;2022-11-15T09:09:42;9.80;99.90
18339;DHT22;9295;44.484;11.240;2022-11-15T09:12:29;9.90;99.90
18339;DHT22;9295;44.484;11.240;2022-11-15T09:15:16;10.00;99.90
18339;DHT22;9295;44.484;11.240;2022-11-15T09:18:06;10.00;99.90
18339;DHT22;9295;44.484;11.240;2022-11-15T09:20:55;10.10;99.90
18339;DHT22;9295;44.484;11.240;2022-11-15T09:23:43;10.20;99.90
18339;DHT22;9295;44.484;11.240;2022-11-15T09:26:30;10.20;99.90
18339;DHT22;9295;44.484;11.240;2022-11-15T09:29:17;10.30;99.90
18339;DHT22;9295;44.484;11.240;2022-11-15T09:32:04;10.40;99.90
18339;DHT22;9295;44.484;11.240;2022-11-15T09:34:53;10.40;99.90
18339;DHT22;9295;44.484;11.240;2022-11-15T09:37:39;10.50;99.90
18339;DHT22;9295;44.484;11.240;2022-11-15T09:40:27;10.60;99.90
18339;DHT22;9295;44.484;11.240;2022-11-15T09:43:28;10.70;99.90
18339;DHT22;9295;44.484;11.240;2022-11-15T09:46:25;10.60;99.90
18339;DHT22;9295;44.484;11.240;2022-11-15T09:49:14;10.60;99.90
18339;DHT22;9295;44.484;11.240;2022-11-15T09:52:07;10.60;99.90
18339;DHT22;9295;44.484;11.240;2022-11-15T09:54:39;10.60;99.90
18339;DHT22;9295;44.484;11.240;2022-11-15T09:57:30;10.70;99.90
18339;DHT22;9295;44.484;11.240;2022-11-15T10:00:07;10.70;99.90
18339;DHT22;9295;44.484;11.240;2022-11-15T10:03:11;10.80;99.90
18339;DHT22;9295;44.484;11.240;2022-11-15T10:05:42;11.00;99.90
18339;DHT22;9295;44.484;11.240;2022-11-15T10:08:31;11.10;99.90
18339;DHT22;9295;44.484;11.240;2022-11-15T10:11:05;11.20;99.90
18339;DHT22;9295;44.484;11.240;2022-11-15T10:13:58;11.30;99.90
18339;DHT22;9295;44.484;11.240;2022-11-15T10:19:38;11.60;99.90
18339;DHT22;9295;44.484;11.240;2022-11-15T10:22:17;11.70;99.90
18339;DHT22;9295;44.484;11.240;2022-11-15T10:24:58;11.80;99.90
18339;DHT22;9295;44.484;11.240;2022-11-15T10:27:29;11.70;99.90
18339;DHT22;9295;44.484;11.240;2022-11-15T10:29:58;11.50;99.90
18339;DHT22;9295;44.484;11.240;2022-11-15T10:32:26;11.40;99.90
18339;DHT22;9295;44.484;11.240;2022-11-15T10:34:55;11.40;99.90
18339;DHT22;9295;44.484;11.240;2022-11-15T10:37:31;11.40;99.90
18339;DHT22;9295;44.484;11.240;2022-11-15T10:40:06;11.50;99.90
18339;DHT22;9295;44.484;11.240;2022-11-15T10:42:35;11.60;99.90
18339;DHT22;9295;44.484;11.240;2022-11-15T10:45:23;11.60;99.90
18339;DHT22;9295;44.484;11.240;2022-11-15T10:47:52;11.60;99.90
18339;DHT22;9295;44.484;11.240;2022-11-15T10:50:32;11.60;99.90
18339;DHT22;9295;44.484;11.240;2022-11-15T10:53:01;11.60;99.90
18339;DHT22;9295;44.484;11.240;2022-11-15T10:55:32;11.60;99.90
18339;DHT22;9295;44.484;11.240;2022-11-15T10:58:04;11.60;99.90
18339;DHT22;9295;44.484;11.240;2022-11-15T11:00:36;11.50;99.90
18339;DHT22;9295;44.484;11.240;2022-11-15T11:03:25;11.50;99.90
18339;DHT22;9295;44.484;11.240;2022-11-15T11:06:05;11.50;99.90
18339;DHT22;9295;44.484;11.240;2022-11-15T11:08:33;11.40;99.90
18339;DHT22;9295;44.484;11.240;2022-11-15T11:11:04;11.40;99.90
18339;DHT22;9295;44.484;11.240;2022-11-15T11:13:35;11.40;99.90
18339;DHT22;9295;44.484;11.240;2022-11-15T11:16:34;11.40;99.90
18339;DHT22;9295;44.484;11.240;2022-11-15T11:22:03;11.40;99.90
18339;DHT22;9295;44.484;11.240;2022-11-15T11:24:41;11.40;99.90
18339;DHT22;9295;44.484;11.240;2022-11-15T11:27:26;11.20;99.90
18339;DHT22;9295;44.484;11.240;2022-11-15T11:30:09;11.20;99.90
18339;DHT22;9295;44.484;11.240;2022-11-15T11:33:03;11.20;99.90
18339;DHT22;9295;44.484;11.240;2022-11-15T11:35:38;11.20;99.90
18339;DHT22;9295;44.484;11.240;2022-11-15T11:38:21;11.30;99.90
18339;DHT22;9295;44.484;11.240;2022-11-15T11:41:00;11.30;99.90
18339;DHT22;9295;44.484;11.240;2022-11-15T11:43:37;11.40;99.90
18339;DHT22;9295;44.484;11.240;2022-11-15T11:46:28;11.40;99.90
18339;DHT22;9295;44.484;11.240;2022-11-15T11:49:06;11.30;99.90
18339;DHT22;9295;44.484;11.240;2022-11-15T11:51:39;11.30;99.90
18339;DHT22;9295;44.484;11.240;2022-11-15T11:54:13;11.40;99.90
18339;DHT22;9295;44.484;11.240;2022-11-15T11:56:44;11.40;99.90
18339;DHT22;9295;44.484;11.240;2022-11-15T11:59:21;11.40;99.90
18339;DHT22;9295;44.484;11.240;2022-11-15T12:01:51;11.50;99.90
18339;DHT22;9295;44.484;11.240;2022-11-15T12:04:24;11.40;99.90
18339;DHT22;9295;44.484;11.240;2022-11-15T12:06:59;11.40;99.90
18339;DHT22;9295;44.484;11.240;2022-11-15T12:09:32;11.40;99.90
18339;DHT22;9295;44.484;11.240;2022-11-15T12:12:08;11.30;99.90
18339;DHT22;9295;44.484;11.240;2022-11-15T12:14:43;11.30;99.90
18339;DHT22;9295;44.484;11.240;2022-11-15T12:17:14;11.20;99.90
18339;DHT22;9295;44.484;11.240;2022-11-15T12:19:45;11.20;99.90
18339;DHT22;9295;44.484;11.240;2022-11-15T12:22:18;11.20;99.90
18339;DHT22;9295;44.484;11.240;2022-11-15T12:24:51;11.20;99.90
18339;DHT22;9295;44.484;11.240;2022-11-15T12:27:26;11.20;99.90
18339;DHT22;9295;44.484;11.240;2022-11-15T12:30:03;11.10;99.90
18339;DHT22;9295;44.484;11.240;2022-11-15T12:32:34;11.10;99.90
18339;DHT22;9295;44.484;11.240;2022-11-15T12:35:06;11.10;99.90
18339;DHT22;9295;44.484;11.240;2022-11-15T12:37:50;11.10;99.90
18339;DHT22;9295;44.484;11.240;2022-11-15T12:40:33;11.10;99.90
18339;DHT22;9295;44.484;11.240;2022-11-15T12:46:04;11.20;99.90
18339;DHT22;9295;44.484;11.240;2022-11-15T12:48:52;11.20;99.90
18339;DHT22;9295;44.484;11.240;2022-11-15T12:57:38;11.20;99.90
18339;DHT22;9295;44.484;11.240;2022-11-15T13:03:27;11.30;99.90
18339;DHT22;9295;44.484;11.240;2022-11-15T13:06:09;11.20;99.90
18339;DHT22;9295;44.484;11.240;2022-11-15T13:08:56;11.30;99.90
18339;DHT22;9295;44.484;11.240;2022-11-15T13:11:51;11.30;99.90
18339;DHT22;9295;44.484;11.240;2022-11-15T13:14:47;11.20;99.90
18339;DHT22;9295;44.484;11.240;2022-11-15T13:17:28;11.30;99.90
18339;DHT22;9295;44.484;11.240;2022-11-15T13:20:21;11.20;99.90
18339;DHT22;9295;44.484;11.240;2022-11-15T13:22:52;11.20;99.90
18339;DHT22;9295;44.484;11.240;2022-11-15T13:25:40;11.20;99.90
18339;DHT22;9295;44.484;11.240;2022-11-15T13:28:18;11.20;99.90
18339;DHT22;9295;44.484;11.240;2022-11-15T13:30:53;11.20;99.90
18339;DHT22;9295;44.484;11.240;2022-11-15T13:33:25;11.20;99.90
18339;DHT22;9295;44.484;11.240;2022-11-15T13:36:06;11.10;99.90
18339;DHT22;9295;44.484;11.240;2022-11-15T13:38:37;11.00;99.90
18339;DHT22;9295;44.484;11.240;2022-11-15T13:41:19;11.00;99.90
18339;DHT22;9295;44.484;11.240;2022-11-15T13:43:49;11.00;99.90
18339;DHT22;9295;44.484;11.240;2022-11-15T13:46:19;10.90;99.90
18339;DHT22;9295;44.484;11.240;2022-11-15T13:48:52;10.90;99.90
18339;DHT22;9295;44.484;11.240;2022-11-15T13:51:33;11.00;99.90
18339;DHT22;9295;44.484;11.240;2022-11-15T13:54:09;11.00;99.90
18339;DHT22;9295;44.484;11.240;2022-11-15T13:56:44;10.90;99.90
18339;DHT22;9295;44.484;11.240;2022-11-15T13:59:17;10.90;99.90
18339;DHT22;9295;44.484;11.240;2022-11-15T14:01:47;10.90;99.90
18339;DHT22;9295;44.484;11.240;2022-11-15T14:04:19;10.90;99.90
18339;DHT22;9295;44.484;11.240;2022-11-15T14:06:52;10.80;99.90
18339;DHT22;9295;44.484;11.240;2022-11-15T14:09:35;10.80;99.90
18339;DHT22;9295;44.484;11.240;2022-11-15T14:12:26;10.80;99.90
18339;DHT22;9295;44.484;11.240;2022-11-15T14:14:58;10.80;99.90
18339;DHT22;9295;44.484;11.240;2022-11-15T14:17:36;10.90;99.90
18339;DHT22;9295;44.484;11.240;2022-11-15T14:20:27;10.90;99.90
18339;DHT22;9295;44.484;11.240;2022-11-15T14:23:00;11.00;99.90
18339;DHT22;9295;44.484;11.240;2022-11-15T14:25:29;10.90;99.90
18339;DHT22;9295;44.484;11.240;2022-11-15T14:28:16;10.80;99.90
18339;DHT22;9295;44.484;11.240;2022-11-15T14:30:58;10.80;99.90
18339;DHT22;9295;44.484;11.240;2022-11-15T14:33:29;10.80;99.90
18339;DHT22;9295;44.484;11.240;2022-11-15T14:36:03;10.80;99.90
18339;DHT22;9295;44.484;11.240;2022-11-15T14:38:33;10.80;99.90
18339;DHT22;9295;44.484;11.240;2022-11-15T14:41:02;10.90;99.90
18339;DHT22;9295;44.484;11.240;2022-11-15T14:43:31;10.80;99.90
18339;DHT22;9295;44.484;11.240;2022-11-15T14:46:00;10.80;99.90
18339;DHT22;9295;44.484;11.240;2022-11-15T14:48:28;10.80;99.90
18339;DHT22;9295;44.484;11.240;2022-11-15T14:50:57;10.70;99.90
18339;DHT22;9295;44.484;11.240;2022-11-15T14:53:26;10.70;99.90
18339;DHT22;9295;44.484;11.240;2022-11-15T14:55:56;10.70;99.90
18339;DHT22;9295;44.484;11.240;2022-11-15T14:58:24;10.70;99.90
18339;DHT22;9295;44.484;11.240;2022-11-15T15:00:52;10.70;99.90
18339;DHT22;9295;44.484;11.240;2022-11-15T15:03:21;10.70;99.90
18339;DHT22;9295;44.484;11.240;2022-11-15T15:05:49;10.70;99.90
18339;DHT22;9295;44.484;11.240;2022-11-15T15:08:18;10.70;99.90
18339;DHT22;9295;44.484;11.240;2022-11-15T15:10:46;10.70;99.90
18339;DHT22;9295;44.484;11.240;2022-11-15T15:13:18;10.70;99.90
18339;DHT22;9295;44.484;11.240;2022-11-15T15:15:47;10.80;99.90
18339;DHT22;9295;44.484;11.240;2022-11-15T15:18:17;10.70;99.90
18339;DHT22;9295;44.484;11.240;2022-11-15T15:20:53;10.70;99.90
18339;DHT22;9295;44.484;11.240;2022-11-15T15:23:22;10.80;99.90
18339;DHT22;9295;44.484;11.240;2022-11-15T15:25:52;10.80;99.90
18339;DHT22;9295;44.484;11.240;2022-11-15T15:28:22;10.80;99.90
18339;DHT22;9295;44.484;11.240;2022-11-15T15:30:56;10.90;99.90
18339;DHT22;9295;44.484;11.240;2022-11-15T15:33:24;10.80;99.90
18339;DHT22;9295;44.484;11.240;2022-11-15T15:35:52;10.90;99.90
18339;DHT22;9295;44.484;11.240;2022-11-15T15:38:21;10.80;99.90
18339;DHT22;9295;44.484;11.240;2022-11-15T15:40:49;10.80;99.90
18339;DHT22;9295;44.484;11.240;2022-11-15T15:43:18;10.70;99.90
18339;DHT22;9295;44.484;11.240;2022-11-15T15:45:48;10.70;99.90
18339;DHT22;9295;44.484;11.240;2022-11-15T15:48:17;10.80;99.90
18339;DHT22;9295;44.484;11.240;2022-11-15T15:50:45;10.90;99.90
18339;DHT22;9295;44.484;11.240;2022-11-15T15:53:14;10.80;99.90
18339;DHT22;9295;44.484;11.240;2022-11-15T15:55:44;10.80;99.90
18339;DHT22;9295;44.484;11.240;2022-11-15T15:58:12;10.80;99.90
18339;DHT22;9295;44.484;11.240;2022-11-15T16:00:41;10.80;99.90
18339;DHT22;9295;44.484;11.240;2022-11-15T16:03:11;10.80;99.90
18339;DHT22;9295;44.484;11.240;2022-11-15T16:05:39;10.80;99.90
18339;DHT22;9295;44.484;11.240;2022-11-15T16:08:26;10.90;99.90
18339;DHT22;9295;44.484;11.240;2022-11-15T16:11:16;10.90;99.90
18339;DHT22;9295;44.484;11.240;2022-11-15T16:13:45;10.90;99.90
18339;DHT22;9295;44.484;11.240;2022-11-15T16:16:13;10.90;99.90
18339;DHT22;9295;44.484;11.240;2022-11-15T16:18:43;10.90;99.90
18339;DHT22;9295;44.484;11.240;2022-11-15T16:21:12;10.90;99.90
18339;DHT22;9295;44.484;11.240;2022-11-15T16:23:40;10.90;99.90
18339;DHT22;9295;44.484;11.240;2022-11-15T16:26:16;10.90;99.90
18339;DHT22;9295;44.484;11.240;2022-11-15T16:28:45;10.90;99.90
18339;DHT22;9295;44.484;11.240;2022-11-15T16:31:14;10.90;99.90
18339;DHT22;9295;44.484;11.240;2022-11-15T16:33:47;10.90;99.90
18339;DHT22;9295;44.484;11.240;2022-11-15T16:36:20;10.90;99.90
18339;DHT22;9295;44.484;11.240;2022-11-15T16:38:56;11.00;99.90
18339;DHT22;9295;44.484;11.240;2022-11-15T16:41:25;10.90;99.90
18339;DHT22;9295;44.484;11.240;2022-11-15T16:43:54;10.90;99.90
18339;DHT22;9295;44.484;11.240;2022-11-15T16:46:23;10.90;99.90
18339;DHT22;9295;44.484;11.240;2022-11-15T16:48:54;10.90;99.90
18339;DHT22;9295;44.484;11.240;2022-11-15T16:51:23;10.90;99.90
18339;DHT22;9295;44.484;11.240;2022-11-15T16:53:51;10.90;99.90
18339;DHT22;9295;44.484;11.240;2022-11-15T16:56:23;10.90;99.90
18339;DHT22;9295;44.484;11.240;2022-11-15T16:58:52;10.90;99.90
18339;DHT22;9295;44.484;11.240;2022-11-15T17:01:23;10.90;99.90
18339;DHT22;9295;44.484;11.240;2022-11-15T17:03:54;10.90;99.90
18339;DHT22;9295;44.484;11.240;2022-11-15T17:06:23;10.90;99.90
18339;DHT22;9295;44.484;11.240;2022-11-15T17:08:53;10.90;99.90
18339;DHT22;9295;44.484;11.240;2022-11-15T17:11:22;10.90;99.90
18339;DHT22;9295;44.484;11.240;2022-11-15T17:13:56;10.90;99.90
18339;DHT22;9295;44.484;11.240;2022-11-15T17:16:25;10.90;99.90
18339;DHT22;9295;44.484;11.240;2022-11-15T17:18:55;10.90;99.90
18339;DHT22;9295;44.484;11.240;2022-11-15T17:21:24;10.90;99.90
18339;DHT22;9295;44.484;11.240;2022-11-15T17:23:59;10.90;99.90
18339;DHT22;9295;44.484;11.240;2022-11-15T17:26:28;10.90;99.90
18339;DHT22;9295;44.484;11.240;2022-11-15T17:29:02;10.90;99.90
18339;DHT22;9295;44.484;11.240;2022-11-15T17:31:34;10.90;99.90
18339;DHT22;9295;44.484;11.240;2022-11-15T17:34:05;10.90;99.90